sensor_id;sensor_type;location;lat;lon;timestamp;pressure;altitude;pressure_sealevel;temperature;humidity
74431;BME280;62863;52.062;23.764;2022-09-30T00:04:15;1019.4;;;6;82.7
74431;BME280;62863;52.062;23.764;2022-09-30T00:08:44;1019.5;;;5.9;83.1
74431;BME280;62863;52.062;23.764;2022-09-30T00:13:49;1019.5;;;5.9;82.8
74431;BME280;62863;52.062;23.764;2022-09-30T00:18:58;1019.5;;;5.8;83.1
74431;BME280;62863;52.062;23.764;2022-09-30T00:24:14;1019.6;;;5.8;83.3
74431;BME280;62863;52.062;23.764;2022-09-30T00:29:12;1019.6;;;5.8;83
74431;BME280;62863;52.062;23.764;2022-09-30T00:34:08;1019.5;;;5.9;83.2
74431;BME280;62863;52.062;23.764;2022-09-30T00:39:13;1019.4;;;5.9;82.5
74431;BME280;62863;52.062;23.764;2022-09-30T00:45:14;1019.4;;;5.8;82.6
74431;BME280;62863;52.062;23.764;2022-09-30T00:49:15;1019.5;;;5.8;82.6
74431;BME280;62863;52.062;23.764;2022-09-30T00:53:42;1019.4;;;5.7;82.3
74431;BME280;62863;52.062;23.764;2022-09-30T00:58:52;1019.5;;;5.6;83
74431;BME280;62863;52.062;23.764;2022-09-30T01:03:37;1019.6;;;5.5;82.5
74431;BME280;62863;52.062;23.764;2022-09-30T01:08:44;1019.7;;;5.4;82.8
74431;BME280;62863;52.062;23.764;2022-09-30T01:13:48;1019.6;;;5.3;82.1
74431;BME280;62863;52.062;23.764;2022-09-30T01:19:18;1019.6;;;5.2;82.5
74431;BME280;62863;52.062;23.764;2022-09-30T01:24:37;1019.6;;;5.1;82.6
74431;BME280;62863;52.062;23.764;2022-09-30T01:29:08;1019.6;;;5;82.6
74431;BME280;62863;52.062;23.764;2022-09-30T01:34:09;1019.6;;;4.9;83
74431;BME280;62863;52.062;23.764;2022-09-30T01:39:05;1019.7;;;4.9;83.3
74431;BME280;62863;52.062;23.764;2022-09-30T01:44:14;1019.7;;;4.8;83.1
74431;BME280;62863;52.062;23.764;2022-09-30T01:48:54;1019.8;;;4.8;82.9
74431;BME280;62863;52.062;23.764;2022-09-30T01:53:38;1019.8;;;4.7;82.3
74431;BME280;62863;52.062;23.764;2022-09-30T01:58:43;1019.8;;;4.6;83.2
74431;BME280;62863;52.062;23.764;2022-09-30T02:04:03;1019.9;;;4.6;82.7
74431;BME280;62863;52.062;23.764;2022-09-30T02:08:58;1019.9;;;4.6;83.7
74431;BME280;62863;52.062;23.764;2022-09-30T02:14:14;1019.9;;;4.6;83.3
74431;BME280;62863;52.062;23.764;2022-09-30T02:19:10;1019.9;;;4.6;83.1
74431;BME280;62863;52.062;23.764;2022-09-30T02:24:04;1019.9;;;4.7;82.9
74431;BME280;62863;52.062;23.764;2022-09-30T02:29:02;1019.8;;;4.7;82.8
74431;BME280;62863;52.062;23.764;2022-09-30T02:34:17;1019.9;;;4.7;82.6
74431;BME280;62863;52.062;23.764;2022-09-30T02:38:39;1019.9;;;4.6;82.5
74431;BME280;62863;52.062;23.764;2022-09-30T02:44:04;1020;;;4.6;82.5
74431;BME280;62863;52.062;23.764;2022-09-30T02:54:19;1020.2;;;4.6;82.1
74431;BME280;62863;52.062;23.764;2022-09-30T02:59:16;1020.3;;;4.5;82.3
74431;BME280;62863;52.062;23.764;2022-09-30T03:03:57;1020.3;;;4.5;82.4
74431;BME280;62863;52.062;23.764;2022-09-30T03:09:14;1020.4;;;4.5;82.9
74431;BME280;62863;52.062;23.764;2022-09-30T03:14:16;1020.4;;;4.5;82.8
74431;BME280;62863;52.062;23.764;2022-09-30T03:19:08;1020.4;;;4.6;82.8
74431;BME280;62863;52.062;23.764;2022-09-30T03:24:33;1020.5;;;4.5;82.4
74431;BME280;62863;52.062;23.764;2022-09-30T03:28:35;1020.5;;;4.4;82.4
74431;BME280;62863;52.062;23.764;2022-09-30T03:33:51;1020.5;;;4.4;82.5
74431;BME280;62863;52.062;23.764;2022-09-30T03:38:41;1020.5;;;4.3;82.5
74431;BME280;62863;52.062;23.764;2022-09-30T03:44:01;1020.5;;;4.3;83
74431;BME280;62863;52.062;23.764;2022-09-30T03:49:22;1020.6;;;4.3;83.2
74431;BME280;62863;52.062;23.764;2022-09-30T03:54:07;1020.7;;;4.3;82.9
74431;BME280;62863;52.062;23.764;2022-09-30T03:59:00;1020.6;;;4.3;82.5
74431;BME280;62863;52.062;23.764;2022-09-30T04:04:00;1020.6;;;4.2;82.3
74431;BME280;62863;52.062;23.764;2022-09-30T04:09:06;1020.4;;;4.2;82.6
74431;BME280;62863;52.062;23.764;2022-09-30T04:14:20;1020.4;;;4.2;82.5
74431;BME280;62863;52.062;23.764;2022-09-30T04:19:20;1020.7;;;4.2;82.8
74431;BME280;62863;52.062;23.764;2022-09-30T04:23:44;1020.8;;;4.1;82.5
74431;BME280;62863;52.062;23.764;2022-09-30T04:28:56;1020.8;;;4.2;83
74431;BME280;62863;52.062;23.764;2022-09-30T04:34:16;1020.9;;;4.2;82.9
74431;BME280;62863;52.062;23.764;2022-09-30T04:39:16;1021.1;;;4.2;83
74431;BME280;62863;52.062;23.764;2022-09-30T04:43:56;1021.2;;;4.4;82.9
74431;BME280;62863;52.062;23.764;2022-09-30T04:49:12;1021.3;;;4.6;82.7
74431;BME280;62863;52.062;23.764;2022-09-30T04:54:04;1021.3;;;4.7;82.2
74431;BME280;62863;52.062;23.764;2022-09-30T04:58:34;1021.5;;;5;81.8
74431;BME280;62863;52.062;23.764;2022-09-30T05:04:02;1021.5;;;5.3;81.3
74431;BME280;62863;52.062;23.764;2022-09-30T05:09:16;1021.4;;;5.6;80.6
74431;BME280;62863;52.062;23.764;2022-09-30T05:13:46;1021.4;;;5.9;79.7
74431;BME280;62863;52.062;23.764;2022-09-30T05:18:44;1021.4;;;6.2;78.5
74431;BME280;62863;52.062;23.764;2022-09-30T05:24:18;1021.5;;;6.6;77.4
74431;BME280;62863;52.062;23.764;2022-09-30T05:28:58;1021.6;;;7.1;76.6
74431;BME280;62863;52.062;23.764;2022-09-30T05:34:18;1021.6;;;7.4;75.9
74431;BME280;62863;52.062;23.764;2022-09-30T05:38:58;1021.7;;;7.7;75
74431;BME280;62863;52.062;23.764;2022-09-30T05:44:10;1021.7;;;8.3;74.1
74431;BME280;62863;52.062;23.764;2022-09-30T05:49:08;1021.6;;;11.3;67.1
74431;BME280;62863;52.062;23.764;2022-09-30T05:53:50;1021.5;;;15.9;55.3
74431;BME280;62863;52.062;23.764;2022-09-30T05:58:44;1021.4;;;19.2;49.7
74431;BME280;62863;52.062;23.764;2022-09-30T06:03:46;1021.4;;;21.8;45.8
74431;BME280;62863;52.062;23.764;2022-09-30T06:08:34;1021.3;;;24.4;42.1
74431;BME280;62863;52.062;23.764;2022-09-30T06:13:56;1021.3;;;26.8;38.5
74431;BME280;62863;52.062;23.764;2022-09-30T06:18:56;1021.3;;;27.9;37
74431;BME280;62863;52.062;23.764;2022-09-30T06:24:18;1021.2;;;28.3;33
74431;BME280;62863;52.062;23.764;2022-09-30T06:29:12;1021.2;;;28.8;31.2
74431;BME280;62863;52.062;23.764;2022-09-30T06:33:50;1021.3;;;28.6;30.7
74431;BME280;62863;52.062;23.764;2022-09-30T06:39:16;1021.4;;;29.1;29.6
74431;BME280;62863;52.062;23.764;2022-09-30T06:44:18;1021.4;;;29.3;28.8
74431;BME280;62863;52.062;23.764;2022-09-30T06:49:16;1021.5;;;28.4;29.8
74431;BME280;62863;52.062;23.764;2022-09-30T06:53:45;1021.5;;;27.7;31.4
74431;BME280;62863;52.062;23.764;2022-09-30T06:58:46;1021.5;;;27.5;31.9
74431;BME280;62863;52.062;23.764;2022-09-30T07:04:16;1021.5;;;28.3;32.1
74431;BME280;62863;52.062;23.764;2022-09-30T07:09:02;1021.5;;;29.3;31.7
74431;BME280;62863;52.062;23.764;2022-09-30T07:13:54;1021.5;;;29.1;29.3
74431;BME280;62863;52.062;23.764;2022-09-30T07:19:09;1021.5;;;29.9;31.8
74431;BME280;62863;52.062;23.764;2022-09-30T07:24:04;1021.5;;;29.8;28.8
74431;BME280;62863;52.062;23.764;2022-09-30T07:28:53;1021.5;;;28.1;29.4
74431;BME280;62863;52.062;23.764;2022-09-30T07:34:01;1021.6;;;27.7;31.1
74431;BME280;62863;52.062;23.764;2022-09-30T07:39:18;1021.6;;;27.2;31.9
74431;BME280;62863;52.062;23.764;2022-09-30T07:43:46;1021.7;;;27.1;31.6
74431;BME280;62863;52.062;23.764;2022-09-30T07:48:45;1021.8;;;25.9;32.7
74431;BME280;62863;52.062;23.764;2022-09-30T07:54:20;1021.8;;;25.5;33.4
74431;BME280;62863;52.062;23.764;2022-09-30T07:59:10;1021.7;;;25.5;34
74431;BME280;62863;52.062;23.764;2022-09-30T08:04:17;1021.7;;;25.5;33.8
74431;BME280;62863;52.062;23.764;2022-09-30T08:08:49;1021.7;;;23.8;35.4
74431;BME280;62863;52.062;23.764;2022-09-30T08:13:48;1021.9;;;21.7;37.5
74431;BME280;62863;52.062;23.764;2022-09-30T08:19:18;1021.9;;;20.7;39.3
74431;BME280;62863;52.062;23.764;2022-09-30T08:23:50;1021.9;;;20.9;39.7
74431;BME280;62863;52.062;23.764;2022-09-30T08:28:38;1021.9;;;21.5;39.3
74431;BME280;62863;52.062;23.764;2022-09-30T08:33:44;1021.8;;;22;38.4
74431;BME280;62863;52.062;23.764;2022-09-30T08:38:35;1021.9;;;21.5;38.7
74431;BME280;62863;52.062;23.764;2022-09-30T08:44:03;1021.9;;;21.6;39.3
74431;BME280;62863;52.062;23.764;2022-09-30T08:48:51;1022;;;21.3;39.4
74431;BME280;62863;52.062;23.764;2022-09-30T08:54:18;1022.2;;;19.9;40.9
74431;BME280;62863;52.062;23.764;2022-09-30T08:59:27;1022.2;;;19;42.9
74431;BME280;62863;52.062;23.764;2022-09-30T09:03:42;1022.3;;;18.8;44
74431;BME280;62863;52.062;23.764;2022-09-30T09:09:24;1022.3;;;18.6;43.1
74431;BME280;62863;52.062;23.764;2022-09-30T09:14:29;1022.3;;;18.3;43.4
74431;BME280;62863;52.062;23.764;2022-09-30T09:19:18;1022.3;;;18.2;43.8
74431;BME280;62863;52.062;23.764;2022-09-30T09:23:34;1022.2;;;18.1;44.7
74431;BME280;62863;52.062;23.764;2022-09-30T09:29:21;1022.2;;;17.8;45.4
74431;BME280;62863;52.062;23.764;2022-09-30T09:34:14;1022.2;;;17.9;45.6
74431;BME280;62863;52.062;23.764;2022-09-30T09:39:03;1022.3;;;17.7;46.9
74431;BME280;62863;52.062;23.764;2022-09-30T09:43:58;1022.2;;;17.8;45.7
74431;BME280;62863;52.062;23.764;2022-09-30T09:49:29;1022.3;;;17.6;46.8
74431;BME280;62863;52.062;23.764;2022-09-30T09:54:04;1022.3;;;17.7;46.8
74431;BME280;62863;52.062;23.764;2022-09-30T09:59:07;1022.3;;;17.7;46.5
74431;BME280;62863;52.062;23.764;2022-09-30T10:04:30;1022.3;;;17.7;46.1
74431;BME280;62863;52.062;23.764;2022-09-30T10:09:25;1022.3;;;17.8;46.2
74431;BME280;62863;52.062;23.764;2022-09-30T10:13:40;1022.3;;;17.9;46.3
74431;BME280;62863;52.062;23.764;2022-09-30T10:18:46;1022.2;;;18;46.1
74431;BME280;62863;52.062;23.764;2022-09-30T10:24:17;1022.1;;;18;45.6
74431;BME280;62863;52.062;23.764;2022-09-30T10:29:23;1022.1;;;18.3;45.6
74431;BME280;62863;52.062;23.764;2022-09-30T10:34:20;1022;;;19.1;44.5
74431;BME280;62863;52.062;23.764;2022-09-30T10:39:02;1022;;;19.2;44.9
74431;BME280;62863;52.062;23.764;2022-09-30T10:44:13;1022;;;19.2;44.5
74431;BME280;62863;52.062;23.764;2022-09-30T10:50:21;1022;;;19.2;44.5
74431;BME280;62863;52.062;23.764;2022-09-30T10:53:52;1022;;;19;44.4
74431;BME280;62863;52.062;23.764;2022-09-30T10:58:39;1022;;;18.9;44.8
74431;BME280;62863;52.062;23.764;2022-09-30T11:04:21;1022;;;19.1;44.3
74431;BME280;62863;52.062;23.764;2022-09-30T11:08:48;1022;;;19.5;43.4
74431;BME280;62863;52.062;23.764;2022-09-30T11:13:54;1022;;;19.9;42.3
74431;BME280;62863;52.062;23.764;2022-09-30T11:19:01;1022;;;19.7;42.1
74431;BME280;62863;52.062;23.764;2022-09-30T11:24:24;1022;;;19.8;42.5
74431;BME280;62863;52.062;23.764;2022-09-30T11:29:57;1022;;;19.8;42
74431;BME280;62863;52.062;23.764;2022-09-30T11:34:19;1022;;;19.3;42.7
74431;BME280;62863;52.062;23.764;2022-09-30T11:44:31;1021.9;;;18.5;44.5
74431;BME280;62863;52.062;23.764;2022-09-30T11:49:58;1022;;;18.4;44.5
74431;BME280;62863;52.062;23.764;2022-09-30T11:54:18;1022;;;18.4;44.7
74431;BME280;62863;52.062;23.764;2022-09-30T11:58:46;1022;;;18.6;45.1
74431;BME280;62863;52.062;23.764;2022-09-30T12:04:23;1022;;;18.4;44.7
74431;BME280;62863;52.062;23.764;2022-09-30T12:09:22;1022.1;;;18.4;45.1
74431;BME280;62863;52.062;23.764;2022-09-30T12:13:37;1022.1;;;18.4;44.5
74431;BME280;62863;52.062;23.764;2022-09-30T12:19:18;1022.1;;;18.5;44.4
74431;BME280;62863;52.062;23.764;2022-09-30T12:24:08;1022.1;;;18.5;44.5
74431;BME280;62863;52.062;23.764;2022-09-30T12:28:57;1022.1;;;18.5;45.7
74431;BME280;62863;52.062;23.764;2022-09-30T12:34:13;1022.2;;;18.2;45.5
74431;BME280;62863;52.062;23.764;2022-09-30T12:39:32;1022.2;;;17.9;46.1
74431;BME280;62863;52.062;23.764;2022-09-30T12:48:54;1022.2;;;17.3;48.6
74431;BME280;62863;52.062;23.764;2022-09-30T12:54:25;1022.2;;;17;51.7
74431;BME280;62863;52.062;23.764;2022-09-30T12:59:13;1022.2;;;16.8;51.7
74431;BME280;62863;52.062;23.764;2022-09-30T13:04:28;1022.2;;;16.5;51.3
74431;BME280;62863;52.062;23.764;2022-09-30T13:09:20;1022.2;;;16.2;51.1
74431;BME280;62863;52.062;23.764;2022-09-30T13:14:29;1022.2;;;15.9;51.5
74431;BME280;62863;52.062;23.764;2022-09-30T13:19:16;1022.3;;;15.9;52.6
74431;BME280;62863;52.062;23.764;2022-09-30T13:23:51;1022.3;;;16;52.1
74431;BME280;62863;52.062;23.764;2022-09-30T13:29:25;1022.3;;;16;52
74431;BME280;62863;52.062;23.764;2022-09-30T13:34:12;1022.3;;;15.9;52.7
74431;BME280;62863;52.062;23.764;2022-09-30T13:38:44;1022.3;;;15.8;53.8
74431;BME280;62863;52.062;23.764;2022-09-30T13:43:39;1022.2;;;15.6;54.4
74431;BME280;62863;52.062;23.764;2022-09-30T13:48:57;1022.2;;;15.3;58.1
74431;BME280;62863;52.062;23.764;2022-09-30T13:54:29;1022.3;;;15.2;60
74431;BME280;62863;52.062;23.764;2022-09-30T14:00:11;1022.2;;;15.1;59.5
74431;BME280;62863;52.062;23.764;2022-09-30T14:03:57;1022.2;;;14.9;58.9
74431;BME280;62863;52.062;23.764;2022-09-30T14:08:51;1022.2;;;14.8;59.1
74431;BME280;62863;52.062;23.764;2022-09-30T14:14:13;1022.1;;;14.8;61.1
74431;BME280;62863;52.062;23.764;2022-09-30T14:19:37;1022.2;;;14.7;62.5
74431;BME280;62863;52.062;23.764;2022-09-30T14:23:34;1022.2;;;14.6;60.9
74431;BME280;62863;52.062;23.764;2022-09-30T14:28:46;1022.2;;;14.3;61.4
74431;BME280;62863;52.062;23.764;2022-09-30T14:33:43;1022.2;;;14.2;62.4
74431;BME280;62863;52.062;23.764;2022-09-30T14:39:00;1022.2;;;14.1;63.1
74431;BME280;62863;52.062;23.764;2022-09-30T14:44:10;1022.1;;;13.9;63.5
74431;BME280;62863;52.062;23.764;2022-09-30T14:49:13;1022.1;;;13.7;63.3
74431;BME280;62863;52.062;23.764;2022-09-30T14:54:13;1022.1;;;13.5;65.8
74431;BME280;62863;52.062;23.764;2022-09-30T14:58:38;1022.1;;;13.3;65.6
74431;BME280;62863;52.062;23.764;2022-09-30T15:04:00;1022.1;;;13.2;65.9
74431;BME280;62863;52.062;23.764;2022-09-30T15:09:22;1022.1;;;13.1;66.2
74431;BME280;62863;52.062;23.764;2022-09-30T15:13:47;1022.1;;;12.9;67.2
74431;BME280;62863;52.062;23.764;2022-09-30T15:18:45;1022;;;12.8;66.8
74431;BME280;62863;52.062;23.764;2022-09-30T15:23:35;1022;;;12.6;68.4
74431;BME280;62863;52.062;23.764;2022-09-30T15:29:22;1022;;;12.6;68.8
74431;BME280;62863;52.062;23.764;2022-09-30T15:34:19;1022;;;12.5;70.7
74431;BME280;62863;52.062;23.764;2022-09-30T15:38:59;1022;;;12.5;70.8
74431;BME280;62863;52.062;23.764;2022-09-30T15:44:15;1022;;;12.5;70.6
74431;BME280;62863;52.062;23.764;2022-09-30T15:49:32;1022;;;12.4;71.4
74431;BME280;62863;52.062;23.764;2022-09-30T15:53:55;1022;;;12.3;72
74431;BME280;62863;52.062;23.764;2022-09-30T15:58:53;1022;;;12.2;71.8
74431;BME280;62863;52.062;23.764;2022-09-30T16:08:38;1022.1;;;12.1;71.9
74431;BME280;62863;52.062;23.764;2022-09-30T16:13:35;1022;;;12;72
74431;BME280;62863;52.062;23.764;2022-09-30T16:18:57;1022;;;12;72.4
74431;BME280;62863;52.062;23.764;2022-09-30T16:29:09;1022.1;;;11.9;75.4
74431;BME280;62863;52.062;23.764;2022-09-30T16:33:57;1022.1;;;11.9;74.5
74431;BME280;62863;52.062;23.764;2022-09-30T16:38:49;1022.1;;;12;75.3
74431;BME280;62863;52.062;23.764;2022-09-30T16:49:23;1022.2;;;11.7;73.6
74431;BME280;62863;52.062;23.764;2022-09-30T16:53:57;1022.2;;;11.7;73.6
74431;BME280;62863;52.062;23.764;2022-09-30T16:58:45;1022.2;;;11.7;76.3
74431;BME280;62863;52.062;23.764;2022-09-30T17:03:57;1022.2;;;11.7;77.2
74431;BME280;62863;52.062;23.764;2022-09-30T17:09:00;1022.2;;;11.7;77.2
74431;BME280;62863;52.062;23.764;2022-09-30T17:13:35;1022.2;;;11.7;75.1
74431;BME280;62863;52.062;23.764;2022-09-30T17:19:13;1022.2;;;11.7;77
74431;BME280;62863;52.062;23.764;2022-09-30T17:23:35;1022.1;;;11.7;75.5
74431;BME280;62863;52.062;23.764;2022-09-30T17:28:49;1022.1;;;11.6;76.5
74431;BME280;62863;52.062;23.764;2022-09-30T17:33:53;1022.1;;;11.6;76
74431;BME280;62863;52.062;23.764;2022-09-30T17:39:07;1022.1;;;11.6;76
74431;BME280;62863;52.062;23.764;2022-09-30T17:44:23;1022.1;;;11.6;78.2
74431;BME280;62863;52.062;23.764;2022-09-30T17:48:35;1022.1;;;11.6;78.2
74431;BME280;62863;52.062;23.764;2022-09-30T18:28:43;1022;;;11.7;79.2
74431;BME280;62863;52.062;23.764;2022-09-30T18:34:10;1022.1;;;11.7;78.8
74431;BME280;62863;52.062;23.764;2022-09-30T18:38:35;1022.1;;;11.6;77.8
74431;BME280;62863;52.062;23.764;2022-09-30T18:43:45;1022.1;;;11.6;77.8
74431;BME280;62863;52.062;23.764;2022-09-30T19:28:57;1022.1;;;11.6;77.8
74431;BME280;62863;52.062;23.764;2022-09-30T19:33:46;1022;;;11.8;80.1
74431;BME280;62863;52.062;23.764;2022-09-30T19:39:19;1022;;;11.7;80.3
74431;BME280;62863;52.062;23.764;2022-09-30T19:43:53;1022;;;11.7;80.3
74431;BME280;62863;52.062;23.764;2022-09-30T19:48:55;1021.8;;;11.6;80.5
74431;BME280;62863;52.062;23.764;2022-09-30T19:54:01;1021.9;;;11.5;79.5
74431;BME280;62863;52.062;23.764;2022-09-30T19:58:50;1021.9;;;11.4;80.9
74431;BME280;62863;52.062;23.764;2022-09-30T20:04:09;1021.9;;;11.4;80.8
74431;BME280;62863;52.062;23.764;2022-09-30T20:08:44;1021.9;;;11.4;80.8
74431;BME280;62863;52.062;23.764;2022-09-30T20:14:19;1021.6;;;11.3;79.6
74431;BME280;62863;52.062;23.764;2022-09-30T20:18:45;1021.6;;;11.2;81.4
74431;BME280;62863;52.062;23.764;2022-09-30T20:23:53;1021.5;;;11.2;81.9
74431;BME280;62863;52.062;23.764;2022-09-30T20:29:21;1021.5;;;11.2;81.9
74431;BME280;62863;52.062;23.764;2022-09-30T20:34:11;1021.5;;;11.3;81.5
74431;BME280;62863;52.062;23.764;2022-09-30T20:39:19;1021.6;;;11.3;82.5
74431;BME280;62863;52.062;23.764;2022-09-30T20:43:59;1021.6;;;11.2;82.9
74431;BME280;62863;52.062;23.764;2022-09-30T20:49:11;1021.6;;;11.2;82.9
74431;BME280;62863;52.062;23.764;2022-09-30T20:54:21;1021.5;;;11.2;81.9
74431;BME280;62863;52.062;23.764;2022-09-30T20:58:55;1021.5;;;11.3;82.9
74431;BME280;62863;52.062;23.764;2022-09-30T21:03:55;1021.5;;;11.4;82.1
74431;BME280;62863;52.062;23.764;2022-09-30T21:08:43;1021.4;;;11.4;82.4
74431;BME280;62863;52.062;23.764;2022-09-30T21:13:43;1021.4;;;11.4;82.4
74431;BME280;62863;52.062;23.764;2022-09-30T21:18:57;1021.5;;;11.5;82.6
74431;BME280;62863;52.062;23.764;2022-09-30T21:23:57;1021.5;;;11.5;82.6
74431;BME280;62863;52.062;23.764;2022-09-30T21:29:13;1021.4;;;11.5;81.5
74431;BME280;62863;52.062;23.764;2022-09-30T21:34:21;1021.4;;;11.5;82.6
74431;BME280;62863;52.062;23.764;2022-09-30T21:38:58;1021.4;;;11.5;82.2
74431;BME280;62863;52.062;23.764;2022-09-30T21:44:19;1021.4;;;11.5;82.8
74431;BME280;62863;52.062;23.764;2022-09-30T21:49:17;1021.4;;;11.5;82.7
74431;BME280;62863;52.062;23.764;2022-09-30T21:54:01;1021.5;;;11.6;82.5
74431;BME280;62863;52.062;23.764;2022-09-30T21:58:46;1021.5;;;11.6;82.3
74431;BME280;62863;52.062;23.764;2022-09-30T22:03:45;1021.5;;;11.6;83.4
74431;BME280;62863;52.062;23.764;2022-09-30T22:08:47;1021.5;;;11.7;82.6
74431;BME280;62863;52.062;23.764;2022-09-30T22:14:05;1021.5;;;11.7;82.6
74431;BME280;62863;52.062;23.764;2022-09-30T22:18:57;1021.6;;;11.6;83.2
74431;BME280;62863;52.062;23.764;2022-09-30T22:24:11;1021.6;;;11.7;82.8
74431;BME280;62863;52.062;23.764;2022-09-30T22:29:09;1021.6;;;11.7;82.8
74431;BME280;62863;52.062;23.764;2022-09-30T22:34:19;1021.9;;;11.8;82.5
74431;BME280;62863;52.062;23.764;2022-09-30T22:39:03;1022;;;11.9;82.5
74431;BME280;62863;52.062;23.764;2022-09-30T22:44:21;1022;;;11.9;83.2
74431;BME280;62863;52.062;23.764;2022-09-30T22:48:45;1022;;;11.9;83.2
74431;BME280;62863;52.062;23.764;2022-09-30T22:53:53;1022;;;11.9;83.2
74431;BME280;62863;52.062;23.764;2022-09-30T22:58:45;1021.9;;;11.8;82.3
74431;BME280;62863;52.062;23.764;2022-09-30T23:04:15;1021.9;;;11.8;82.1
74431;BME280;62863;52.062;23.764;2022-09-30T23:13:57;1021.9;;;11.8;82.1
74431;BME280;62863;52.062;23.764;2022-09-30T23:19:11;1022;;;11.7;82.5
74431;BME280;62863;52.062;23.764;2022-09-30T23:24:09;1021.9;;;11.8;81.9
74431;BME280;62863;52.062;23.764;2022-09-30T23:29:04;1021.9;;;11.8;82.4
74431;BME280;62863;52.062;23.764;2022-09-30T23:33:50;1021.8;;;11.8;82.3
74431;BME280;62863;52.062;23.764;2022-09-30T23:39:01;1021.8;;;11.8;82.3
74431;BME280;62863;52.062;23.764;2022-09-30T23:43:35;1021.8;;;12;81.9
74431;BME280;62863;52.062;23.764;2022-09-30T23:48:35;1021.8;;;12;82
74431;BME280;62863;52.062;23.764;2022-09-30T23:53:57;1021.8;;;12;82
74431;BME280;62863;52.062;23.764;2022-09-30T23:59:17;1021.9;;;12;81.6
